Time;durP1;ratioP1;P1;durP2;ratioP2;P2;SDS_P1;SDS_P2;PMS_P1;PMS_P2;Temp;Humidity;BMP_temperature;BMP_pressure;BME280_temperature;BME280_humidity;BME280_pressure;Samples;Min_cycle;Max_cycle;Signal;HPM_P1;HPM_P2
2023/10/01 00:00:27;;;;;;;12.37;3.30;;;;;;;15.95;100.00;100940.16;1459967;89;21537;-81
2023/10/01 00:02:59;;;;;;;8.63;3.80;;;;;;;15.95;100.00;100942.83;1454931;89;21486;-82
2023/10/01 00:05:26;;;;;;;11.80;4.87;;;;;;;15.90;100.00;100945.16;1459593;89;21455;-82
2023/10/01 00:07:53;;;;;;;15.63;4.30;;;;;;;15.90;100.00;100947.84;1458855;89;21493;-84
2023/10/01 00:10:22;;;;;;;6.83;3.47;;;;;;;15.88;100.00;100957.84;1468230;89;21530;-82
2023/10/01 00:12:52;;;;;;;10.60;3.10;;;;;;;15.90;100.00;100947.84;1456873;89;21655;-83
2023/10/01 00:15:23;;;;;;;11.63;4.30;;;;;;;15.82;100.00;100946.00;1459837;89;21486;-82
2023/10/01 00:17:49;;;;;;;26.93;6.03;;;;;;;15.83;100.00;100956.20;1460861;89;21522;-81
2023/10/01 00:20:29;;;;;;;18.03;5.10;;;;;;;15.76;100.00;100952.84;1461450;89;21434;-83
2023/10/01 00:23:05;;;;;;;17.70;5.73;;;;;;;15.73;100.00;100946.52;1460957;89;21605;-83
2023/10/01 00:25:34;;;;;;;16.73;5.10;;;;;;;15.71;100.00;100950.38;1459994;89;21537;-83
2023/10/01 00:28:04;;;;;;;12.40;4.93;;;;;;;15.74;100.00;100951.38;1461043;89;21723;-84
2023/10/01 00:30:31;;;;;;;15.47;5.13;;;;;;;15.70;100.00;100944.69;1461332;89;21515;-84
2023/10/01 00:32:59;;;;;;;19.50;5.20;;;;;;;15.69;100.00;100950.53;1456848;89;22505;-84
2023/10/01 00:35:25;;;;;;;9.10;4.50;;;;;;;15.65;100.00;100946.52;1455720;89;22076;-82
2023/10/01 00:37:52;;;;;;;12.83;4.23;;;;;;;15.62;100.00;100940.16;1455255;89;21478;-83
2023/10/01 00:40:18;;;;;;;12.90;4.50;;;;;;;15.61;100.00;100939.00;1462659;89;21528;-85
2023/10/01 00:42:46;;;;;;;14.00;5.13;;;;;;;15.63;100.00;100945.84;1462855;89;21463;-82
2023/10/01 00:45:14;;;;;;;11.00;3.77;;;;;;;15.63;100.00;100933.02;1461559;89;21419;-84
2023/10/01 00:47:46;;;;;;;13.50;4.03;;;;;;;15.52;100.00;100958.19;1464798;89;21433;-85
2023/10/01 00:50:21;;;;;;;14.70;3.73;;;;;;;15.53;100.00;100941.99;1452951;89;21522;-85
2023/10/01 00:52:51;;;;;;;11.17;3.93;;;;;;;15.49;100.00;100947.85;1460802;89;22380;-85
2023/10/01 00:55:20;;;;;;;10.95;3.60;;;;;;;15.49;100.00;100934.52;1446512;89;21523;-85
2023/10/01 00:57:46;;;;;;;11.30;4.17;;;;;;;15.47;100.00;100938.67;1464272;89;21484;-84
2023/10/01 01:00:37;;;;;;;17.77;4.13;;;;;;;15.45;100.00;100938.02;1458191;89;21411;-84
2023/10/01 01:05:49;;;;;;;14.70;4.83;;;;;;;15.44;100.00;100931.51;1457754;89;21596;-84
2023/10/01 01:08:20;;;;;;;12.03;4.80;;;;;;;15.40;100.00;100936.85;1464645;89;22957;-87
2023/10/01 01:10:43;;;;;;;14.83;4.40;;;;;;;15.35;100.00;100936.84;1449378;89;21464;-84
2023/10/01 01:13:16;;;;;;;9.07;4.03;;;;;;;15.33;100.00;100940.66;1463244;89;21592;-84
2023/10/01 01:15:38;;;;;;;8.67;4.10;;;;;;;15.29;100.00;100941.50;1460942;89;21588;-85
2023/10/01 01:18:08;;;;;;;13.27;5.00;;;;;;;15.28;100.00;100933.18;1456904;89;22895;-84
2023/10/01 01:20:43;;;;;;;12.55;4.75;;;;;;;15.24;100.00;100932.33;1440416;89;23002;-84
2023/10/01 01:23:06;;;;;;;16.10;5.43;;;;;;;15.18;100.00;100925.83;1463365;89;22422;-84
2023/10/01 01:25:33;;;;;;;21.37;5.40;;;;;;;15.17;100.00;100930.84;1459202;89;21448;-85
2023/10/01 01:28:00;;;;;;;16.40;5.33;;;;;;;15.13;100.00;100924.15;1455153;89;22595;-87
2023/10/01 01:30:29;;;;;;;13.80;4.37;;;;;;;15.10;100.00;100925.81;1464541;89;21508;-85
2023/10/01 01:32:57;;;;;;;11.70;4.97;;;;;;;15.01;100.00;100924.14;1450077;89;21434;-86
2023/10/01 01:35:30;;;;;;;12.00;5.03;;;;;;;14.97;100.00;100930.81;1465093;89;21471;-83
2023/10/01 01:38:00;;;;;;;14.90;4.43;;;;;;;14.95;100.00;100926.14;1461156;89;22594;-85
2023/10/01 01:40:31;;;;;;;16.30;4.43;;;;;;;14.93;100.00;100928.13;1455329;89;22410;-84
2023/10/01 01:42:56;;;;;;;13.70;4.03;;;;;;;14.87;100.00;100921.14;1458416;89;22431;-85
2023/10/01 01:45:27;;;;;;;14.57;4.90;;;;;;;14.85;100.00;100927.12;1464058;89;21485;-85
2023/10/01 01:47:54;;;;;;;16.00;4.37;;;;;;;14.82;100.00;100927.95;1459004;89;21589;-84
2023/10/01 01:50:26;;;;;;;10.80;4.93;;;;;;;14.74;100.00;100928.76;1466493;89;21515;-82
2023/10/01 01:52:58;;;;;;;11.23;4.97;;;;;;;14.74;100.00;100923.43;1458205;89;21539;-81
2023/10/01 01:55:29;;;;;;;9.77;4.00;;;;;;;14.68;100.00;100926.75;1465006;89;21463;-82
2023/10/01 01:58:10;;;;;;;10.23;3.47;;;;;;;14.66;100.00;100927.40;1460138;89;22083;-83
2023/10/01 02:01:01;;;;;;;13.67;5.30;;;;;;;14.62;100.00;100926.06;1461359;89;21574;-82
2023/10/01 02:03:18;;;;;;;13.77;5.43;;;;;;;14.66;100.00;100932.73;1465194;89;21418;-82
2023/10/01 02:05:47;;;;;;;13.17;4.80;;;;;;;14.58;100.00;100935.36;1456776;89;21568;-83
2023/10/01 02:10:59;;;;;;;11.87;4.73;;;;;;;14.53;100.00;100931.01;1462169;89;21626;-83
2023/10/01 02:13:26;;;;;;;15.37;5.00;;;;;;;14.52;100.00;100945.33;1462341;89;21477;-82
2023/10/01 02:15:54;;;;;;;12.47;4.43;;;;;;;14.48;100.00;100938.13;1462337;89;21412;-82
2023/10/01 02:18:21;;;;;;;17.57;4.87;;;;;;;14.49;100.00;100944.28;1460646;89;22284;-82
2023/10/01 02:20:52;;;;;;;13.03;5.07;;;;;;;14.42;100.00;100939.61;1458657;89;21478;-83
2023/10/01 02:23:26;;;;;;;15.00;5.43;;;;;;;14.39;100.00;100939.93;1454408;89;21434;-81
2023/10/01 02:25:46;;;;;;;14.93;5.37;;;;;;;14.42;100.00;100947.59;1455607;89;21464;-82
2023/10/01 02:28:14;;;;;;;10.17;4.00;;;;;;;14.40;100.00;100940.25;1459556;89;21640;-82
2023/10/01 02:30:52;;;;;;;14.27;5.23;;;;;;;14.38;100.00;100940.08;1454018;89;21522;-81
2023/10/01 02:33:16;;;;;;;12.37;5.17;;;;;;;14.36;100.00;100942.09;1455033;89;22239;-81
2023/10/01 02:35:46;;;;;;;12.40;4.57;;;;;;;14.32;100.00;100938.88;1456261;89;21508;-83
2023/10/01 02:40:59;;;;;;;13.30;5.03;;;;;;;14.27;100.00;100937.69;1459912;89;21438;-85
2023/10/01 02:43:26;;;;;;;11.87;4.27;;;;;;;14.25;100.00;100940.53;1453180;89;21644;-85
2023/10/01 02:45:52;;;;;;;12.33;4.63;;;;;;;14.25;100.00;100939.70;1440111;89;21537;-83
2023/10/01 02:48:18;;;;;;;10.47;3.87;;;;;;;14.25;100.00;100947.19;1463852;89;21501;-85
2023/10/01 02:50:54;;;;;;;15.00;3.80;;;;;;;14.19;100.00;100947.32;1459334;89;21640;-83
2023/10/01 02:53:23;;;;;;;10.77;4.23;;;;;;;14.17;100.00;100948.47;1462390;89;21485;-83
2023/10/01 02:55:51;;;;;;;14.43;4.63;;;;;;;14.17;100.00;100950.62;1450995;89;21426;-82
2023/10/01 02:58:28;;;;;;;11.50;4.20;;;;;;;14.16;100.00;100950.80;1455381;89;22652;-83
2023/10/01 03:00:55;;;;;;;10.90;5.00;;;;;;;14.16;100.00;100957.45;1459806;89;22497;-84
2023/10/01 03:03:31;;;;;;;12.30;4.50;;;;;;;14.15;100.00;100945.13;1453825;89;21486;-84
2023/10/01 03:05:49;;;;;;;10.53;4.67;;;;;;;14.14;100.00;100950.95;1452445;89;21470;-83
2023/10/01 03:11:04;;;;;;;14.43;4.57;;;;;;;14.05;100.00;100947.91;1468678;89;21618;-84
2023/10/01 03:13:31;;;;;;;11.55;4.10;;;;;;;14.00;100.00;100942.22;1458547;89;21537;-83
2023/10/01 03:18:44;;;;;;;12.07;6.27;;;;;;;13.93;100.00;100941.19;1418116;92;21677;-80
2023/10/01 03:21:19;;;;;;;13.93;4.60;;;;;;;13.89;100.00;100949.95;1445997;89;21567;-83
2023/10/01 03:23:51;;;;;;;11.30;3.83;;;;;;;13.83;100.00;100943.11;1453026;89;22521;-83
2023/10/01 03:26:11;;;;;;;14.97;4.57;;;;;;;13.80;100.00;100945.58;1446541;90;21544;-83
2023/10/01 03:31:25;;;;;;;15.43;5.70;;;;;;;13.73;100.00;100946.70;1437648;90;21551;-82
2023/10/01 03:33:54;;;;;;;9.07;4.00;;;;;;;13.71;100.00;100949.17;1468737;89;21509;-85
2023/10/01 03:36:28;;;;;;;14.27;4.57;;;;;;;13.67;100.00;100953.16;1445498;90;21449;-84
2023/10/01 03:39:25;;;;;;;10.33;4.80;;;;;;;13.63;100.00;100950.44;1469910;89;21516;-84
2023/10/01 03:41:27;;;;;;;13.60;3.33;;;;;;;13.59;100.00;100954.41;1424404;90;21508;-84
2023/10/01 03:43:56;;;;;;;12.55;5.17;;;;;;;13.56;100.00;100959.55;1465301;89;21450;-85
2023/10/01 03:54:26;;;;;;;11.47;4.00;;;;;;;13.44;100.00;100965.59;1467947;89;21657;-84
2023/10/01 03:56:56;;;;;;;17.30;5.00;;;;;;;13.39;100.00;100967.04;1442656;90;22379;-85
2023/10/01 03:59:32;;;;;;;11.87;4.93;;;;;;;13.39;100.00;100965.21;1460336;89;21456;-85
2023/10/01 04:01:59;;;;;;;13.47;4.87;;;;;;;13.34;100.00;100956.85;1439028;90;21515;-85
2023/10/01 04:08:09;;;;;;;13.67;4.17;;;;;;;13.28;100.00;100958.80;1399554;86;21607;-83
2023/10/01 04:10:01;;;;;;;14.40;5.03;;;;;;;13.27;100.00;100966.44;1386978;94;21615;-81
2023/10/01 04:12:33;;;;;;;11.90;4.03;;;;;;;13.24;100.00;100969.37;1393924;93;21651;-82
2023/10/01 04:15:01;;;;;;;10.60;3.83;;;;;;;13.18;100.00;100970.81;1374775;94;21459;-82
2023/10/01 04:17:35;;;;;;;12.20;4.40;;;;;;;13.16;100.00;100967.96;1392050;94;22448;-81
2023/10/01 04:20:00;;;;;;;14.47;4.97;;;;;;;13.14;100.00;100965.94;1411033;92;21678;-81
2023/10/01 04:22:29;;;;;;;12.27;4.20;;;;;;;13.13;100.00;100972.25;1427614;92;21500;-80
2023/10/01 04:25:10;;;;;;;14.23;4.40;;;;;;;13.10;100.00;100975.54;1415049;91;21449;-81
2023/10/01 04:27:34;;;;;;;9.83;4.63;;;;;;;13.04;100.00;100977.47;1424450;92;21545;-81
2023/10/01 04:30:08;;;;;;;11.17;3.90;;;;;;;13.06;100.00;100971.53;1418870;91;22639;-80
2023/10/01 04:32:31;;;;;;;16.50;4.58;;;;;;;13.06;100.00;100974.66;1421401;92;22535;-80
2023/10/01 04:35:01;;;;;;;16.53;4.67;;;;;;;13.04;100.00;100976.64;1419018;91;21500;-81
2023/10/01 04:37:37;;;;;;;13.05;4.25;;;;;;;13.06;100.00;100972.85;1431446;91;21487;-80
2023/10/01 04:40:31;;;;;;;12.83;3.70;;;;;;;13.03;100.00;100974.95;1402475;92;21545;-81
2023/10/01 04:42:37;;;;;;;15.30;4.23;;;;;;;13.04;100.00;100971.33;1423658;92;22554;-85
2023/10/01 04:45:22;;;;;;;9.07;4.20;;;;;;;13.05;100.00;100975.15;1423896;91;21516;-82
2023/10/01 04:47:41;;;;;;;13.67;3.60;;;;;;;13.03;100.00;100974.48;1411788;92;21486;-83
2023/10/01 04:50:06;;;;;;;13.47;4.90;;;;;;;13.05;100.00;100979.63;1416790;92;21589;-83
2023/10/01 04:52:32;;;;;;;15.27;4.30;;;;;;;13.05;100.00;100981.80;1422697;91;21531;-84
2023/10/01 04:54:58;;;;;;;12.20;5.10;;;;;;;13.08;100.00;100984.14;1426779;91;21471;-84
2023/10/01 04:57:25;;;;;;;10.70;4.50;;;;;;;13.09;100.00;100985.01;1399726;92;21478;-83
2023/10/01 04:59:57;;;;;;;17.70;4.33;;;;;;;13.09;100.00;100981.85;1421873;91;21449;-83
2023/10/01 05:02:23;;;;;;;8.80;3.70;;;;;;;13.11;100.00;100981.69;1420468;92;22403;-82
2023/10/01 05:04:51;;;;;;;8.00;3.27;;;;;;;13.09;100.00;100987.66;1422885;91;21457;-81
2023/10/01 05:07:17;;;;;;;18.13;4.30;;;;;;;13.12;100.00;100983.84;1418687;92;22417;-83
2023/10/01 05:09:43;;;;;;;18.33;4.57;;;;;;;13.14;100.00;100987.20;1420059;92;21375;-83
2023/10/01 05:12:11;;;;;;;11.97;3.77;;;;;;;13.17;100.00;100992.20;1415170;92;21507;-82
2023/10/01 05:14:59;;;;;;;8.57;4.20;;;;;;;13.21;100.00;100996.25;1424959;92;21568;-82
2023/10/01 05:17:07;;;;;;;11.63;4.10;;;;;;;13.20;100.00;100999.87;1411302;92;22400;-83
2023/10/01 05:19:37;;;;;;;15.23;3.93;;;;;;;13.22;100.00;101000.58;1422881;92;21517;-84
2023/10/01 05:22:01;;;;;;;11.27;3.90;;;;;;;13.26;100.00;101000.63;1422886;92;21553;-83
2023/10/01 05:25:05;;;;;;;11.33;4.33;;;;;;;13.32;100.00;101008.00;1426905;91;22434;-83
2023/10/01 05:27:31;;;;;;;15.43;3.70;;;;;;;13.32;100.00;101008.00;1422510;92;21464;-83
2023/10/01 05:29:57;;;;;;;11.57;3.97;;;;;;;13.35;100.00;101006.39;1426300;91;21515;-83
2023/10/01 05:32:24;;;;;;;7.77;3.50;;;;;;;13.39;100.00;101008.25;1424141;92;21457;-85
2023/10/01 05:34:50;;;;;;;11.90;4.23;;;;;;;13.35;100.00;101015.70;1424016;92;21450;-83
2023/10/01 05:37:24;;;;;;;35.70;4.97;;;;;;;13.37;100.00;101019.52;1425064;92;21494;-82
2023/10/01 05:39:58;;;;;;;13.63;4.27;;;;;;;13.43;100.00;101020.23;1427518;92;21494;-82
2023/10/01 05:42:28;;;;;;;12.37;4.17;;;;;;;13.45;100.00;101022.27;1424034;92;21745;-84
2023/10/01 05:44:59;;;;;;;12.77;4.10;;;;;;;13.49;100.00;101025.81;1421257;91;21523;-83
2023/10/01 05:47:41;;;;;;;8.75;3.95;;;;;;;13.57;100.00;101022.87;1421720;92;21456;-84
2023/10/01 05:49:53;;;;;;;12.43;3.90;;;;;;;13.65;100.00;101030.92;1418520;92;21516;-81
2023/10/01 05:52:23;;;;;;;9.07;3.80;;;;;;;13.72;100.00;101032.83;1413252;92;21509;-84
2023/10/01 05:54:52;;;;;;;17.00;5.07;;;;;;;13.84;100.00;101037.88;1417209;92;22359;-82
2023/10/01 05:57:23;;;;;;;15.03;4.27;;;;;;;13.92;100.00;101042.77;1401907;92;22462;-82
2023/10/01 05:59:56;;;;;;;8.70;3.67;;;;;;;13.97;100.00;101037.83;1418112;92;22020;-83
2023/10/01 06:05:03;;;;;;;14.10;3.83;;;;;;;14.23;100.00;101035.69;1397468;92;21500;-84
2023/10/01 06:07:28;;;;;;;13.93;4.30;;;;;;;14.40;100.00;101037.45;1419409;92;22417;-83
2023/10/01 06:09:55;;;;;;;11.13;4.33;;;;;;;14.61;100.00;101036.26;1419247;92;21615;-83
2023/10/01 06:12:21;;;;;;;8.93;3.07;;;;;;;14.72;100.00;101035.98;1424407;92;21649;-82
2023/10/01 06:14:48;;;;;;;12.13;3.20;;;;;;;14.80;100.00;101033.86;1421488;92;21514;-82
2023/10/01 06:17:14;;;;;;;16.37;4.17;;;;;;;14.86;100.00;101034.55;1418326;92;21434;-80
2023/10/01 06:19:42;;;;;;;11.40;4.13;;;;;;;14.95;100.00;101041.57;1426392;92;21479;-85
2023/10/01 06:22:22;;;;;;;9.57;4.17;;;;;;;15.06;100.00;101040.45;1419327;92;23154;-83
2023/10/01 06:24:43;;;;;;;10.13;3.90;;;;;;;15.19;100.00;101038.64;1404287;92;22484;-82
2023/10/01 06:27:17;;;;;;;14.63;3.47;;;;;;;15.28;100.00;101038.52;1423123;92;21494;-82
2023/10/01 06:29:49;;;;;;;9.87;3.80;;;;;;;15.35;100.00;101043.52;1413812;92;21487;-82
2023/10/01 06:32:20;;;;;;;11.10;3.50;;;;;;;15.46;100.00;101045.55;1416165;92;21515;-83
2023/10/01 06:34:49;;;;;;;17.87;5.27;;;;;;;15.47;100.00;101047.20;1421182;92;21530;-83
2023/10/01 06:37:15;;;;;;;14.97;4.50;;;;;;;15.53;100.00;101043.37;1427928;92;21627;-81
2023/10/01 06:43:49;;;;;;;9.83;4.10;;;;;;;15.52;100.00;101047.05;1419184;92;21518;-82
2023/10/01 06:46:19;;;;;;;10.80;4.23;;;;;;;15.50;100.00;101054.88;1416384;91;21449;-83
2023/10/01 06:48:55;;;;;;;11.25;3.87;;;;;;;15.47;100.00;101059.20;1420463;92;21456;-81
2023/10/01 06:51:22;;;;;;;18.70;5.80;;;;;;;15.44;100.00;101061.70;1415919;92;21508;-81
2023/10/01 06:53:53;;;;;;;15.17;4.00;;;;;;;15.42;100.00;101062.86;1418034;92;21449;-82
2023/10/01 06:56:17;;;;;;;13.80;4.60;;;;;;;15.46;100.00;101075.72;1421661;91;22668;-84
2023/10/01 06:59:03;;;;;;;11.13;4.13;;;;;;;15.56;100.00;101079.55;1427644;92;21494;-88
2023/10/01 07:01:34;;;;;;;11.37;4.33;;;;;;;15.65;100.00;101083.07;1420738;92;21538;-86
2023/10/01 07:03:40;;;;;;;14.33;3.87;;;;;;;15.70;100.00;101083.45;1416741;92;21544;-86
2023/10/01 07:06:06;;;;;;;13.53;4.43;;;;;;;15.77;100.00;101080.47;1418079;92;22314;-86
2023/10/01 07:08:43;;;;;;;16.53;5.00;;;;;;;15.76;98.17;101082.28;1422752;91;21508;-87
2023/10/01 07:11:18;;;;;;;11.07;3.80;;;;;;;15.86;97.45;101097.33;1397289;92;22574;-89
2023/10/01 07:13:41;;;;;;;16.87;4.17;;;;;;;15.99;96.99;101090.97;1421799;92;21674;-83
2023/10/01 07:16:07;;;;;;;9.27;3.43;;;;;;;16.03;90.52;101093.66;1427600;91;21471;-81
2023/10/01 07:18:38;;;;;;;13.07;3.73;;;;;;;15.94;87.01;101094.63;1425674;91;22529;-81
2023/10/01 07:21:11;;;;;;;13.27;4.20;;;;;;;16.02;88.35;101101.31;1418054;91;21472;-81
2023/10/01 07:23:36;;;;;;;13.50;4.40;;;;;;;16.16;88.29;101095.31;1418920;92;21582;-83
2023/10/01 07:26:03;;;;;;;17.90;6.00;;;;;;;16.22;83.26;101099.14;1415824;91;21700;-82
2023/10/01 07:28:30;;;;;;;10.70;4.10;;;;;;;16.30;81.87;101096.98;1420492;92;21992;-82
2023/10/01 07:31:01;;;;;;;8.47;4.10;;;;;;;16.32;80.91;101098.98;1398540;92;22507;-82
2023/10/01 07:33:28;;;;;;;9.03;4.10;;;;;;;16.41;77.30;101100.12;1423184;92;22454;-83
2023/10/01 07:36:01;;;;;;;12.83;4.17;;;;;;;16.51;77.68;101103.94;1426758;92;21493;-83
2023/10/01 07:38:31;;;;;;;11.97;4.33;;;;;;;16.64;78.16;101102.09;1422668;92;21516;-80
2023/10/01 07:41:07;;;;;;;10.13;3.60;;;;;;;16.61;74.37;101096.59;1418994;91;22521;-83
2023/10/01 07:43:30;;;;;;;12.57;3.90;;;;;;;16.69;74.27;101097.91;1421158;92;21700;-83
2023/10/01 07:46:02;;;;;;;11.47;3.30;;;;;;;16.70;72.65;101103.57;1421998;92;21522;-82
2023/10/01 07:48:29;;;;;;;12.33;3.77;;;;;;;16.82;71.98;101101.39;1418690;91;21530;-81
2023/10/01 07:51:02;;;;;;;8.37;3.27;;;;;;;16.78;69.34;101097.41;1429828;91;22352;-83
2023/10/01 07:53:32;;;;;;;11.60;3.00;;;;;;;16.85;71.27;101100.22;1420381;92;21522;-82
2023/10/01 07:55:58;;;;;;;13.37;4.67;;;;;;;16.89;69.58;101109.58;1425582;92;21508;-83
2023/10/01 07:58:24;;;;;;;11.47;3.47;;;;;;;17.07;70.50;101108.00;1418345;91;22468;-83
2023/10/01 08:01:32;;;;;;;8.83;3.83;;;;;;;17.30;69.02;101102.72;1423529;92;21464;-82
2023/10/01 08:06:16;;;;;;;12.30;3.70;;;;;;;17.58;65.54;101104.41;1421761;92;21678;-82
2023/10/01 08:08:47;;;;;;;6.67;3.08;;;;;;;17.53;63.97;101090.71;1432461;92;21566;-82
2023/10/01 08:11:55;;;;;;;14.07;4.05;;;;;;;17.54;65.01;101087.84;1422049;92;21552;-82
2023/10/01 08:13:35;;;;;;;13.47;3.03;;;;;;;17.41;64.68;101083.59;1417582;92;21501;-82
2023/10/01 08:16:02;;;;;;;10.10;3.27;;;;;;;17.36;65.97;101075.25;1419563;92;22299;-83
2023/10/01 08:18:35;;;;;;;10.30;2.97;;;;;;;17.45;65.79;101072.85;1427823;92;21581;-83
2023/10/01 08:21:36;;;;;;;9.83;3.30;;;;;;;17.44;63.53;101078.40;1400524;92;21619;-84
2023/10/01 08:23:45;;;;;;;9.10;3.43;;;;;;;17.45;63.71;101076.87;1417336;92;22461;-83
2023/10/01 08:28:57;;;;;;;25.85;5.30;;;;;;;17.48;63.77;101077.84;1420589;92;21695;-80
2023/10/01 08:34:28;;;;;;;8.70;3.60;;;;;;;17.65;62.84;101083.10;1414938;91;22544;-82
2023/10/01 08:37:06;;;;;;;15.78;3.85;;;;;;;17.85;60.31;101078.97;1407983;92;22359;-81
2023/10/01 08:39:34;;;;;;;9.33;3.47;;;;;;;18.02;60.24;101083.17;1426279;92;21508;-84
2023/10/01 08:42:52;;;;;;;10.00;3.90;;;;;;;18.04;60.25;101082.50;1415418;92;22366;-81
2023/10/01 08:44:33;;;;;;;9.15;3.70;;;;;;;18.21;60.10;101090.36;1394399;92;21523;-82
2023/10/01 08:47:21;;;;;;;6.85;4.00;;;;;;;18.06;56.90;101098.88;1427917;91;21456;-83
2023/10/01 08:49:31;;;;;;;15.98;5.28;;;;;;;17.97;58.00;101088.23;1419391;92;22130;-83
2023/10/01 08:52:19;;;;;;;11.78;3.40;;;;;;;17.97;58.44;101095.44;1422046;92;21471;-82
2023/10/01 08:54:48;;;;;;;9.13;3.37;;;;;;;18.17;58.77;101094.44;1417816;91;21450;-83
2023/10/01 08:57:36;;;;;;;10.40;4.22;;;;;;;18.30;58.10;101097.82;1418934;92;21559;-82
2023/10/01 08:59:47;;;;;;;10.18;3.85;;;;;;;18.35;57.46;101103.47;1413645;92;21665;-81
2023/10/01 09:02:19;;;;;;;9.75;3.92;;;;;;;18.41;58.31;101099.58;1428002;92;21464;-84
2023/10/01 09:04:48;;;;;;;12.03;3.95;;;;;;;18.56;57.60;101104.95;1421205;92;21652;-83
2023/10/01 09:07:18;;;;;;;10.18;3.72;;;;;;;18.74;57.64;101101.94;1420985;91;21572;-81
2023/10/01 09:10:06;;;;;;;15.88;4.30;;;;;;;18.75;56.46;101100.08;1409873;92;22322;-82
2023/10/01 09:12:45;;;;;;;9.33;2.92;;;;;;;18.71;56.92;101107.13;1423701;91;21637;-81
2023/10/01 09:15:08;;;;;;;11.75;3.55;;;;;;;18.70;56.37;101113.52;1431126;92;21590;-82
2023/10/01 09:17:56;;;;;;;9.45;3.72;;;;;;;18.79;56.85;101102.22;1414139;92;21517;-83
2023/10/01 09:20:17;;;;;;;8.70;3.17;;;;;;;18.91;54.84;101094.02;1421168;92;21568;-82
2023/10/01 09:22:45;;;;;;;8.43;3.25;;;;;;;18.92;54.30;101092.17;1418970;92;22425;-82
2023/10/01 09:25:21;;;;;;;14.30;3.90;;;;;;;18.66;54.68;101085.91;1424590;92;21678;-83
2023/10/01 09:28:02;;;;;;;8.48;3.10;;;;;;;18.96;55.71;101078.73;1426199;91;22514;-81
2023/10/01 09:30:35;;;;;;;13.30;2.98;;;;;;;19.08;54.30;101088.47;1426748;91;21471;-83
2023/10/01 09:33:05;;;;;;;11.63;3.35;;;;;;;19.02;53.06;101094.07;1419894;92;22525;-83
2023/10/01 09:35:59;;;;;;;16.73;4.70;;;;;;;18.92;55.78;101091.66;1407365;92;21428;-81
2023/10/01 09:38:31;;;;;;;9.65;3.42;;;;;;;18.71;55.38;101089.70;1421904;92;22300;-81
2023/10/01 09:40:59;;;;;;;11.78;4.03;;;;;;;18.56;55.25;101100.07;1423598;92;21464;-84
2023/10/01 09:43:29;;;;;;;5.22;2.85;;;;;;;18.68;56.54;101112.03;1419990;92;21486;-82
2023/10/01 09:46:00;;;;;;;17.20;4.10;;;;;;;18.61;55.21;101119.13;1417885;92;21426;-82
2023/10/01 09:48:30;;;;;;;9.35;3.50;;;;;;;18.48;54.65;101119.26;1430673;91;22556;-82
2023/10/01 09:51:18;;;;;;;7.33;3.05;;;;;;;18.43;52.81;101117.63;1419462;91;21634;-81
2023/10/01 09:53:48;;;;;;;13.70;4.08;;;;;;;18.33;53.18;101123.77;1422686;92;22589;-84
2023/10/01 09:57:08;;;;;;;11.97;4.37;;;;;;;18.43;55.07;101125.67;1499948;92;21435;-82
2023/10/01 09:58:47;;;;;;;11.45;4.03;;;;;;;18.47;54.79;101120.77;1363631;92;21620;-81
2023/10/01 10:01:19;;;;;;;10.75;3.55;;;;;;;18.56;55.24;101105.44;1500956;92;21421;-81
2023/10/01 10:03:47;;;;;;;7.65;3.45;;;;;;;18.61;53.92;101103.05;1403249;92;21559;-88
2023/10/01 10:06:24;;;;;;;13.10;4.12;;;;;;;18.88;55.41;101099.77;1406327;92;21552;-87
2023/10/01 10:08:41;;;;;;;7.65;3.10;;;;;;;19.16;55.76;101109.80;1420729;92;21635;-85
2023/10/01 10:11:24;;;;;;;10.78;3.70;;;;;;;19.38;55.12;101099.95;1422046;92;22403;-85
2023/10/01 10:13:46;;;;;;;8.08;2.90;;;;;;;19.40;54.54;101108.66;1420609;92;22374;-83
2023/10/01 10:16:35;;;;;;;14.75;3.80;;;;;;;19.27;52.62;101105.30;1424850;91;21464;-85
2023/10/01 10:19:13;;;;;;;12.73;3.43;;;;;;;19.20;53.78;101111.11;1424975;92;22566;-85
2023/10/01 10:24:45;;;;;;;11.57;3.65;;;;;;;19.10;54.77;101105.19;1419783;91;21659;-86
2023/10/01 10:27:15;;;;;;;10.10;3.75;;;;;;;19.05;54.68;101102.26;1420656;92;22425;-86
2023/10/01 10:29:57;;;;;;;10.00;4.28;;;;;;;19.08;54.59;101097.86;1421801;92;21736;-84
2023/10/01 10:32:44;;;;;;;10.08;2.95;;;;;;;19.05;54.88;101096.89;1421951;92;22010;-86
2023/10/01 10:35:19;;;;;;;11.75;3.05;;;;;;;19.09;55.16;101089.60;1405499;92;21479;-87
2023/10/01 10:37:53;;;;;;;12.95;4.50;;;;;;;19.16;54.32;101088.33;1424172;91;21627;-89
2023/10/01 10:44:34;;;;;;;7.67;2.30;;;;;;;19.08;54.54;101087.13;1391833;93;21755;-87
2023/10/01 10:47:04;;;;;;;11.00;3.52;;;;;;;18.94;55.14;101079.41;1393090;94;22426;-84
2023/10/01 10:49:54;;;;;;;10.55;3.80;;;;;;;18.73;55.70;101082.82;1360562;94;21438;-86
2023/10/01 10:52:36;;;;;;;9.47;3.73;;;;;;;18.62;55.02;101081.94;1389938;94;21488;-84
2023/10/01 10:55:16;;;;;;;13.60;4.42;;;;;;;18.71;55.67;101074.13;1378128;94;22599;-85
2023/10/01 10:57:48;;;;;;;10.98;4.22;;;;;;;18.65;55.04;101078.89;1398551;94;21514;-84
2023/10/01 11:00:23;;;;;;;12.00;4.08;;;;;;;18.72;56.65;101076.60;1352830;94;21430;-85
2023/10/01 11:02:43;;;;;;;15.72;3.83;;;;;;;18.74;56.04;101077.80;1322078;94;21832;-86
2023/10/01 11:05:15;;;;;;;7.40;3.17;;;;;;;18.75;56.43;101072.75;1441947;94;21423;-85
2023/10/01 11:07:58;;;;;;;6.92;3.27;;;;;;;18.51;54.59;101070.33;1329540;94;21512;-83
2023/10/01 11:10:22;;;;;;;8.53;3.45;;;;;;;18.48;54.89;101062.97;1342117;92;21475;-83
2023/10/01 11:12:54;;;;;;;8.58;3.62;;;;;;;18.56;55.69;101065.23;1357004;92;21404;-83
2023/10/01 11:15:23;;;;;;;10.85;3.20;;;;;;;18.62;56.42;101067.20;1427759;92;21537;-85
2023/10/01 11:17:48;;;;;;;13.43;5.95;;;;;;;18.59;55.53;101058.19;1419045;92;23077;-85
2023/10/01 11:20:23;;;;;;;13.10;3.87;;;;;;;18.60;54.92;101055.81;1418782;92;21449;-84
2023/10/01 11:22:54;;;;;;;8.98;3.50;;;;;;;18.70;54.93;101061.72;1416841;91;22077;-84
2023/10/01 11:25:35;;;;;;;15.20;3.70;;;;;;;18.72;56.05;101067.73;1423765;92;21552;-85
2023/10/01 11:32:01;;;;;;;11.55;4.05;;;;;;;18.78;56.11;101071.05;1423559;92;21537;-85
2023/10/01 11:34:43;;;;;;;8.90;3.70;;;;;;;18.78;54.33;101068.36;1426187;91;21668;-85
2023/10/01 11:37:19;;;;;;;11.85;4.37;;;;;;;18.70;54.59;101070.61;1420583;92;21627;-84
2023/10/01 11:39:52;;;;;;;8.88;3.95;;;;;;;18.66;54.62;101068.48;1402020;92;21501;-85
2023/10/01 11:42:38;;;;;;;8.45;3.10;;;;;;;18.71;54.12;101070.93;1423120;91;21561;-86
2023/10/01 11:45:30;;;;;;;10.15;4.05;;;;;;;18.92;55.03;101067.52;1415004;91;21626;-83
2023/10/01 11:48:05;;;;;;;7.83;4.05;;;;;;;19.09;54.59;101064.12;1422445;92;21442;-83
2023/10/01 11:50:50;;;;;;;10.63;4.12;;;;;;;19.25;54.41;101068.45;1401576;92;22438;-86
2023/10/01 11:53:16;;;;;;;;;;;;;;;19.56;54.41;101068.17;1423607;92;21596;-81
2023/10/01 11:55:39;;;;;;;9.50;3.40;;;;;;;19.72;52.06;101064.93;1418091;90;20356;-84
2023/10/01 11:58:05;;;;;;;7.55;4.25;;;;;;;19.69;49.66;101064.80;1418373;92;22418;-83
2023/10/01 12:03:18;;;;;;;11.95;3.95;;;;;;;19.51;49.97;101064.39;1406025;92;21464;-84
2023/10/01 12:05:46;;;;;;;13.25;5.33;;;;;;;19.44;51.37;101066.16;1421110;91;21637;-83
2023/10/01 12:08:18;;;;;;;8.78;3.15;;;;;;;19.33;50.93;101068.34;1401239;92;21509;-84
2023/10/01 12:10:44;;;;;;;13.65;4.83;;;;;;;19.31;51.52;101065.00;1418714;92;22514;-84
2023/10/01 12:13:13;;;;;;;9.63;4.17;;;;;;;19.37;52.21;101058.05;1420867;91;21523;-85
2023/10/01 12:15:51;;;;;;;9.23;3.98;;;;;;;19.34;51.72;101052.55;1402809;92;21581;-84
2023/10/01 12:18:17;;;;;;;13.28;4.45;;;;;;;19.29;51.16;101052.27;1420621;92;21501;-84
2023/10/01 12:20:47;;;;;;;16.05;4.65;;;;;;;19.21;51.05;101051.05;1421832;92;21560;-85
2023/10/01 12:23:19;;;;;;;;;;;;;;;19.22;51.16;101049.19;1420989;91;21508;-84
2023/10/01 12:26:31;;;;;;;16.67;4.10;;;;;;;19.02;52.44;101042.24;1419389;92;20318;-85